Time;durP1;ratioP1;P1;durP2;ratioP2;P2;SDS_P1;SDS_P2;PMS_P1;PMS_P2;Temp;Humidity;BMP_temperature;BMP_pressure;BME280_temperature;BME280_humidity;BME280_pressure;Samples;Min_cycle;Max_cycle;Signal;HPM_P1;HPM_P2
2021/05/10 00:00:38;;;;;;;1.88;0.75;;;15.30;74.90;;;;;;5055730;28;20104;-76
2021/05/10 00:03:04;;;;;;;2.38;0.60;;;15.30;75.10;;;;;;5067298;28;20028;-76
2021/05/10 00:05:29;;;;;;;2.00;0.60;;;15.20;75.60;;;;;;5060223;28;20196;-76
2021/05/10 00:07:55;;;;;;;1.88;0.60;;;15.20;75.80;;;;;;5055628;28;20029;-76
2021/05/10 00:10:21;;;;;;;1.45;0.45;;;15.10;76.10;;;;;;5055538;28;20025;-76
2021/05/10 00:12:48;;;;;;;2.15;0.85;;;14.90;76.80;;;;;;5055537;28;20021;-76
2021/05/10 00:15:14;;;;;;;1.58;0.70;;;14.90;77.10;;;;;;5072021;28;20032;-76
2021/05/10 00:17:43;;;;;;;1.80;0.80;;;14.90;77.10;;;;;;5075440;28;20100;-76
2021/05/10 00:20:09;;;;;;;1.10;0.50;;;14.80;77.50;;;;;;5058942;28;20021;-76
2021/05/10 00:22:34;;;;;;;1.02;0.50;;;14.90;77.80;;;;;;5037355;28;20492;-76
2021/05/10 00:25:00;;;;;;;1.27;0.60;;;14.70;78.20;;;;;;5056592;28;20032;-76
2021/05/10 00:27:26;;;;;;;2.20;0.60;;;14.80;78.40;;;;;;5055394;28;20100;-76
2021/05/10 00:29:51;;;;;;;1.55;0.60;;;14.80;78.40;;;;;;5055401;28;20029;-76
2021/05/10 00:32:17;;;;;;;0.82;0.65;;;14.70;78.70;;;;;;5052726;28;20436;-76
2021/05/10 00:34:43;;;;;;;1.40;0.95;;;14.80;79.00;;;;;;5055239;28;20376;-76
2021/05/10 00:37:08;;;;;;;1.05;0.55;;;14.70;79.10;;;;;;5055046;28;20484;-76
2021/05/10 00:39:34;;;;;;;1.20;0.60;;;14.80;79.00;;;;;;5055091;28;20037;-76
2021/05/10 00:42:00;;;;;;;1.23;0.50;;;14.90;78.70;;;;;;5055081;28;20028;-76
2021/05/10 00:44:25;;;;;;;1.13;0.63;;;14.90;79.00;;;;;;5053537;28;20029;-76
2021/05/10 00:46:53;;;;;;;1.83;0.70;;;14.80;79.50;;;;;;5074900;28;20052;-76
2021/05/10 00:49:19;;;;;;;0.82;0.40;;;14.70;79.50;;;;;;5075105;28;20032;-76
2021/05/10 00:51:48;;;;;;;1.05;0.60;;;14.70;79.60;;;;;;5075761;28;20080;-77
2021/05/10 00:54:15;;;;;;;1.17;0.50;;;14.70;79.80;;;;;;5074738;28;20035;-76
2021/05/10 00:56:40;;;;;;;1.67;0.73;;;14.70;79.80;;;;;;5074951;28;20517;-76
2021/05/10 00:59:07;;;;;;;1.40;0.50;;;14.70;79.90;;;;;;5075126;28;20072;-76
2021/05/10 01:01:33;;;;;;;2.05;0.80;;;14.60;80.60;;;;;;5065754;28;20032;-76
2021/05/10 01:03:59;;;;;;;1.10;0.68;;;14.50;80.90;;;;;;5037045;28;20037;-76
2021/05/10 01:06:24;;;;;;;2.30;0.85;;;14.60;80.60;;;;;;5054835;28;20124;-76
2021/05/10 01:08:53;;;;;;;2.53;0.70;;;14.70;79.90;;;;;;5036728;28;20048;-75
2021/05/10 01:11:19;;;;;;;0.80;0.50;;;14.70;79.80;;;;;;5055006;28;20054;-76
2021/05/10 01:13:45;;;;;;;1.70;0.70;;;14.60;80.20;;;;;;5054690;28;20022;-76
2021/05/10 01:16:11;;;;;;;1.85;0.93;;;14.70;80.70;;;;;;5054835;28;20033;-76
2021/05/10 01:18:37;;;;;;;1.17;0.80;;;14.60;80.40;;;;;;5055061;28;20040;-76
2021/05/10 01:21:03;;;;;;;3.33;1.00;;;14.60;80.50;;;;;;5054622;28;20017;-76
2021/05/10 01:23:30;;;;;;;1.30;0.50;;;14.50;80.90;;;;;;5054578;28;20033;-76
2021/05/10 01:25:58;;;;;;;1.55;0.68;;;14.40;81.20;;;;;;5074311;28;20017;-76
2021/05/10 01:28:24;;;;;;;2.00;0.77;;;14.50;81.20;;;;;;5053708;28;20025;-76
2021/05/10 01:30:51;;;;;;;2.33;0.80;;;14.50;81.30;;;;;;5054657;28;20036;-77
2021/05/10 01:33:19;;;;;;;1.80;0.85;;;14.50;81.10;;;;;;5056869;28;20028;-76
2021/05/10 01:35:48;;;;;;;2.30;0.70;;;14.50;81.60;;;;;;5057113;28;20633;-76
2021/05/10 01:38:14;;;;;;;2.08;0.80;;;14.50;82.50;;;;;;5058518;28;20029;-76
2021/05/10 01:40:40;;;;;;;1.67;0.70;;;14.40;82.30;;;;;;5062122;28;20032;-76
2021/05/10 01:43:06;;;;;;;3.22;0.65;;;14.40;82.30;;;;;;5078266;28;20032;-76
2021/05/10 01:45:36;;;;;;;2.35;0.80;;;14.40;82.00;;;;;;5078028;28;20078;-76
2021/05/10 01:48:05;;;;;;;1.53;0.60;;;14.50;82.20;;;;;;5061956;28;20083;-76
2021/05/10 01:50:31;;;;;;;2.70;0.90;;;14.50;81.70;;;;;;5059644;28;20028;-76
2021/05/10 01:52:57;;;;;;;1.42;0.60;;;14.50;82.00;;;;;;5067843;28;20020;-76
2021/05/10 01:55:24;;;;;;;2.03;0.80;;;14.50;82.30;;;;;;5057996;28;20027;-76
2021/05/10 01:57:53;;;;;;;2.53;0.98;;;14.60;82.50;;;;;;5058470;28;20029;-76
2021/05/10 02:00:29;;;;;;;3.42;1.20;;;14.40;83.60;;;;;;5058524;28;20060;-76
2021/05/10 02:03:02;;;;;;;2.63;0.90;;;14.50;83.80;;;;;;5058165;28;20032;-76
2021/05/10 02:05:31;;;;;;;1.95;1.00;;;14.50;83.70;;;;;;5057949;28;20025;-76
2021/05/10 02:07:59;;;;;;;2.85;0.85;;;14.40;83.90;;;;;;5057854;28;20029;-76
2021/05/10 02:10:32;;;;;;;2.80;0.80;;;14.30;85.10;;;;;;5057515;28;20436;-76
2021/05/10 02:13:04;;;;;;;1.85;0.75;;;14.30;85.30;;;;;;5057806;28;20245;-76
2021/05/10 02:15:32;;;;;;;3.92;1.15;;;14.50;84.30;;;;;;5057501;28;20390;-76
2021/05/10 02:17:59;;;;;;;1.30;0.60;;;14.50;84.20;;;;;;5057426;28;20060;-76
2021/05/10 02:20:26;;;;;;;2.30;0.90;;;14.60;83.70;;;;;;5057562;28;20029;-76
2021/05/10 02:23:10;;;;;;;1.38;0.60;;;14.50;83.80;;;;;;5058821;28;20037;-77
2021/05/10 02:25:38;;;;;;;2.60;0.93;;;14.40;84.00;;;;;;5087065;28;20024;-76
2021/05/10 02:28:23;;;;;;;2.10;1.02;;;14.40;83.50;;;;;;5040222;28;20032;-76
2021/05/10 02:30:50;;;;;;;2.80;1.10;;;14.20;83.80;;;;;;5057388;28;20053;-76
2021/05/10 02:33:18;;;;;;;3.33;1.00;;;14.20;84.20;;;;;;5057384;28;20377;-76
2021/05/10 02:35:45;;;;;;;2.67;1.15;;;14.20;83.90;;;;;;5057208;28;20078;-76
2021/05/10 02:38:12;;;;;;;2.35;0.88;;;14.20;83.80;;;;;;5057440;28;20028;-76
2021/05/10 02:40:38;;;;;;;1.20;0.93;;;14.20;84.00;;;;;;5057186;28;20025;-77
2021/05/10 02:43:04;;;;;;;3.00;0.90;;;14.20;83.40;;;;;;5057124;28;20033;-76
2021/05/10 02:45:32;;;;;;;1.60;0.75;;;14.20;83.40;;;;;;5054837;28;20064;-76
2021/05/10 02:47:58;;;;;;;1.90;0.80;;;14.20;83.30;;;;;;5057022;28;20029;-76
2021/05/10 02:50:26;;;;;;;2.78;1.50;;;14.20;83.60;;;;;;5056979;28;20028;-76
2021/05/10 02:52:52;;;;;;;1.83;0.75;;;14.10;83.80;;;;;;5057087;28;20729;-77
2021/05/10 02:55:19;;;;;;;3.13;0.90;;;14.20;83.50;;;;;;5056706;28;20021;-77
2021/05/10 02:57:47;;;;;;;1.88;0.98;;;14.20;83.00;;;;;;5056996;28;20017;-76
2021/05/10 03:00:15;;;;;;;1.65;0.70;;;14.20;83.00;;;;;;5056590;28;20526;-76
2021/05/10 03:02:40;;;;;;;1.42;0.80;;;14.20;83.00;;;;;;5056869;28;20029;-76
2021/05/10 03:05:08;;;;;;;1.77;0.80;;;14.20;82.80;;;;;;5056555;28;20446;-76
2021/05/10 03:07:35;;;;;;;2.28;0.90;;;14.10;82.90;;;;;;5056764;28;20155;-76
2021/05/10 03:10:02;;;;;;;2.13;0.85;;;14.10;82.90;;;;;;5056577;28;20024;-76
2021/05/10 03:12:28;;;;;;;1.52;0.75;;;14.10;83.00;;;;;;5056444;28;20078;-76
2021/05/10 03:14:54;;;;;;;3.10;1.20;;;14.00;83.00;;;;;;5057091;28;20028;-76
2021/05/10 03:17:20;;;;;;;2.72;0.80;;;14.10;82.90;;;;;;5058302;28;20037;-76
2021/05/10 03:19:49;;;;;;;2.72;1.00;;;14.00;82.80;;;;;;5076562;28;20038;-75
2021/05/10 03:22:15;;;;;;;1.83;0.98;;;14.00;82.80;;;;;;5058489;28;20052;-76
2021/05/10 03:24:41;;;;;;;2.75;0.88;;;14.00;82.90;;;;;;5076854;28;20111;-76
2021/05/10 03:27:07;;;;;;;2.40;0.90;;;13.90;83.10;;;;;;5071287;28;20432;-76
2021/05/10 03:29:32;;;;;;;2.13;0.80;;;13.90;83.00;;;;;;5038369;28;20028;-77
2021/05/10 03:31:58;;;;;;;2.35;0.93;;;13.80;83.20;;;;;;5056244;28;20029;-76
2021/05/10 03:34:24;;;;;;;1.10;0.75;;;13.80;83.10;;;;;;5038142;28;20115;-76
2021/05/10 03:36:49;;;;;;;1.98;0.50;;;13.80;83.10;;;;;;5038333;28;20037;-76
2021/05/10 03:39:15;;;;;;;2.92;0.88;;;13.80;83.00;;;;;;5056198;28;20123;-76
2021/05/10 03:41:41;;;;;;;4.22;1.10;;;13.70;83.20;;;;;;5055912;28;20025;-76
2021/05/10 03:44:07;;;;;;;2.90;1.15;;;13.60;83.50;;;;;;5056084;28;20025;-76
2021/05/10 03:46:32;;;;;;;2.58;1.00;;;13.60;83.30;;;;;;5056185;28;20110;-76
2021/05/10 03:48:58;;;;;;;3.45;1.00;;;13.70;83.20;;;;;;5055973;28;20470;-76
2021/05/10 03:51:25;;;;;;;3.75;1.27;;;13.60;83.40;;;;;;5055790;28;20071;-76
2021/05/10 03:53:51;;;;;;;2.25;0.88;;;13.60;83.50;;;;;;5055811;28;20021;-75
2021/05/10 03:56:16;;;;;;;2.72;0.82;;;13.60;83.50;;;;;;5055327;28;20469;-76
2021/05/10 03:58:42;;;;;;;2.38;0.98;;;13.60;83.80;;;;;;5059396;28;20028;-76
2021/05/10 04:01:09;;;;;;;1.85;0.82;;;13.50;84.20;;;;;;5057715;28;20029;-76
2021/05/10 04:04:04;;;;;;;1.60;0.80;;;13.50;84.20;;;;;;5075795;28;20077;-76
2021/05/10 04:06:39;;;;;;;2.45;1.08;;;13.40;84.50;;;;;;5069408;28;20033;-76
2021/05/10 04:09:31;;;;;;;0.98;0.65;;;13.50;84.50;;;;;;5055556;28;20018;-77
2021/05/10 04:14:35;;;;;;;2.45;0.90;;;13.30;85.10;;;;;;5064588;28;20518;-76
2021/05/10 04:17:00;;;;;;;3.20;1.40;;;13.20;85.20;;;;;;5073120;28;20032;-76
2021/05/10 04:19:26;;;;;;;1.50;0.80;;;13.20;85.40;;;;;;5055430;28;20028;-76
2021/05/10 04:22:07;;;;;;;1.70;0.80;;;13.20;85.30;;;;;;5055327;28;20488;-76
2021/05/10 04:24:32;;;;;;;1.25;0.73;;;13.20;85.40;;;;;;5056857;28;20464;-76
2021/05/10 04:26:59;;;;;;;1.60;0.68;;;13.30;85.00;;;;;;5085387;28;20033;-76
2021/05/10 04:29:24;;;;;;;1.60;0.80;;;13.40;84.40;;;;;;5056487;28;20482;-76
2021/05/10 04:31:50;;;;;;;2.22;0.90;;;13.40;84.30;;;;;;5053803;28;20028;-76
2021/05/10 04:34:16;;;;;;;2.17;0.77;;;13.40;84.10;;;;;;5055263;28;20025;-76
2021/05/10 04:36:41;;;;;;;2.65;1.00;;;13.40;83.90;;;;;;5056409;28;20040;-76
2021/05/10 04:39:10;;;;;;;2.97;0.88;;;13.40;83.80;;;;;;5075393;28;20048;-76
2021/05/10 04:41:36;;;;;;;1.73;0.80;;;13.30;83.90;;;;;;5075129;28;20556;-76
2021/05/10 04:44:01;;;;;;;2.30;0.90;;;13.30;84.30;;;;;;5071199;28;20130;-76
2021/05/10 04:46:27;;;;;;;2.20;1.02;;;13.30;84.00;;;;;;5054765;28;20138;-76
2021/05/10 04:48:53;;;;;;;2.08;0.80;;;13.30;83.70;;;;;;5054999;28;20017;-77
2021/05/10 04:51:18;;;;;;;2.28;1.10;;;13.30;84.20;;;;;;5055109;28;20033;-75
2021/05/10 04:53:44;;;;;;;1.85;0.80;;;13.20;84.00;;;;;;5054978;28;20080;-75
2021/05/10 04:56:10;;;;;;;2.90;1.10;;;13.20;83.60;;;;;;5037152;28;20446;-75
2021/05/10 04:58:35;;;;;;;3.28;0.95;;;13.20;83.30;;;;;;5054955;28;20025;-75
2021/05/10 05:01:01;;;;;;;2.08;0.80;;;13.20;83.30;;;;;;5053554;28;20408;-74
2021/05/10 05:03:27;;;;;;;2.08;1.05;;;13.30;82.70;;;;;;5055013;28;20446;-76
2021/05/10 05:05:53;;;;;;;2.92;1.05;;;13.30;82.60;;;;;;5054510;28;20495;-75
2021/05/10 05:08:19;;;;;;;1.75;0.70;;;13.30;82.90;;;;;;5057490;28;20028;-76
2021/05/10 05:10:44;;;;;;;1.33;0.68;;;13.20;83.10;;;;;;5058725;28;20025;-76
2021/05/10 05:13:23;;;;;;;2.85;1.05;;;13.30;83.40;;;;;;5058569;28;20578;-76
2021/05/10 05:15:49;;;;;;;1.95;0.88;;;13.50;83.60;;;;;;5058946;28;20033;-77
2021/05/10 05:18:15;;;;;;;2.55;0.95;;;13.50;83.10;;;;;;5068709;28;20017;-77
2021/05/10 05:20:41;;;;;;;1.75;0.95;;;13.70;83.00;;;;;;5077174;28;20111;-78
2021/05/10 05:23:21;;;;;;;2.00;0.73;;;13.70;82.80;;;;;;5086744;28;20059;-80
2021/05/10 05:25:52;;;;;;;1.80;1.00;;;13.60;83.20;;;;;;5087773;28;20111;-83
2021/05/10 05:28:18;;;;;;;1.05;0.60;;;13.60;83.40;;;;;;5077274;28;20040;-77
2021/05/10 05:30:43;;;;;;;2.58;1.00;;;13.50;83.70;;;;;;5076838;28;20024;-79
2021/05/10 05:33:09;;;;;;;1.88;1.08;;;13.40;83.80;;;;;;5073277;28;20025;-79
2021/05/10 05:35:35;;;;;;;3.03;0.90;;;13.30;84.20;;;;;;5062903;28;20029;-78
2021/05/10 05:38:01;;;;;;;2.08;0.88;;;13.30;84.60;;;;;;5078191;28;20455;-79
2021/05/10 05:40:26;;;;;;;1.40;0.60;;;13.30;84.60;;;;;;5067086;28;20033;-78
2021/05/10 05:42:52;;;;;;;1.55;0.65;;;13.40;84.50;;;;;;5061827;28;20017;-78
2021/05/10 05:45:18;;;;;;;2.88;1.30;;;13.60;84.70;;;;;;5078091;28;20047;-80
2021/05/10 05:47:44;;;;;;;2.67;0.80;;;13.70;84.80;;;;;;5086060;28;20012;-79
2021/05/10 05:50:10;;;;;;;2.75;1.00;;;13.70;84.50;;;;;;5082598;28;20494;-82
2021/05/10 05:52:36;;;;;;;2.53;1.10;;;13.70;84.90;;;;;;5077118;28;20017;-78
2021/05/10 05:55:01;;;;;;;1.33;0.73;;;13.70;85.00;;;;;;5085884;28;20039;-80
2021/05/10 05:57:27;;;;;;;1.73;0.82;;;13.60;85.10;;;;;;5097764;28;20032;-79
2021/05/10 05:59:54;;;;;;;2.08;1.00;;;13.60;85.10;;;;;;5059724;28;20514;-79
2021/05/10 06:02:20;;;;;;;2.35;1.00;;;13.70;84.80;;;;;;5057558;28;20056;-78
2021/05/10 06:04:45;;;;;;;1.92;0.98;;;13.70;84.00;;;;;;5057232;28;20028;-78
2021/05/10 06:07:11;;;;;;;1.85;0.90;;;13.80;83.50;;;;;;5057286;28;20021;-78
2021/05/10 06:09:38;;;;;;;2.85;0.98;;;13.80;83.70;;;;;;5057890;28;20090;-78
2021/05/10 06:12:04;;;;;;;2.13;0.80;;;13.90;83.60;;;;;;5077239;28;20028;-78
2021/05/10 06:14:30;;;;;;;2.08;0.90;;;13.90;83.00;;;;;;5060544;28;20079;-77
2021/05/10 06:16:55;;;;;;;1.67;0.80;;;14.00;83.20;;;;;;5057131;28;20028;-82
2021/05/10 06:19:21;;;;;;;1.42;0.90;;;13.90;83.00;;;;;;5057024;28;20028;-77
2021/05/10 06:21:47;;;;;;;1.55;1.13;;;14.00;83.50;;;;;;5060387;28;20734;-78
2021/05/10 06:24:13;;;;;;;1.88;0.80;;;14.00;82.90;;;;;;5077205;28;20120;-77
2021/05/10 06:26:40;;;;;;;2.05;0.70;;;14.20;82.60;;;;;;5085627;28;20033;-76
2021/05/10 06:29:06;;;;;;;1.13;0.73;;;14.50;81.30;;;;;;5076897;28;20035;-81
2021/05/10 06:31:31;;;;;;;2.22;1.00;;;14.40;81.10;;;;;;5071520;28;20029;-79
2021/05/10 06:33:57;;;;;;;2.17;0.77;;;14.10;81.10;;;;;;5057052;28;20033;-78
2021/05/10 06:36:23;;;;;;;0.90;0.50;;;14.40;81.00;;;;;;5073931;28;20031;-78
2021/05/10 06:38:48;;;;;;;2.10;0.95;;;14.60;80.60;;;;;;5076792;28;20035;-78
2021/05/10 06:41:14;;;;;;;1.63;0.68;;;14.70;79.80;;;;;;5064166;28;20500;-78
2021/05/10 06:43:39;;;;;;;2.53;1.05;;;14.70;80.00;;;;;;5067801;28;20028;-78
2021/05/10 06:46:05;;;;;;;1.38;0.60;;;14.70;79.70;;;;;;5076346;28;20058;-78
2021/05/10 06:48:33;;;;;;;1.92;0.93;;;14.70;79.70;;;;;;5056937;28;20051;-78
2021/05/10 06:50:59;;;;;;;1.75;1.00;;;14.70;79.10;;;;;;5056393;28;20025;-78
2021/05/10 06:53:26;;;;;;;1.60;0.82;;;14.70;79.70;;;;;;5058040;28;20094;-78
2021/05/10 06:55:52;;;;;;;1.90;0.70;;;14.90;79.20;;;;;;5072718;28;20028;-78
2021/05/10 06:58:19;;;;;;;1.38;0.70;;;15.20;78.00;;;;;;5076682;28;20024;-78
2021/05/10 07:00:46;;;;;;;2.70;0.73;;;15.80;76.30;;;;;;5064623;28;20981;-78
2021/05/10 07:03:12;;;;;;;1.23;0.65;;;16.30;73.70;;;;;;5038420;28;20033;-78
2021/05/10 07:05:38;;;;;;;1.70;0.80;;;16.40;72.80;;;;;;5054637;28;20108;-78
2021/05/10 07:08:17;;;;;;;2.00;0.98;;;16.60;72.90;;;;;;5076199;28;20113;-79
2021/05/10 07:10:50;;;;;;;1.35;0.60;;;17.10;71.30;;;;;;5054782;28;20106;-85
2021/05/10 07:13:16;;;;;;;1.77;0.90;;;17.60;70.50;;;;;;5055535;28;20135;-87
2021/05/10 07:15:43;;;;;;;2.75;1.00;;;;;;;;;;5056924;28;20047;-92
2021/05/10 07:18:11;;;;;;;1.30;0.70;;;18.60;66.70;;;;;;5038861;28;20032;-84
2021/05/10 07:20:37;;;;;;;1.38;0.50;;;19.90;62.20;;;;;;5056528;28;20029;-84
2021/05/10 07:23:05;;;;;;;1.50;0.60;;;19.70;59.60;;;;;;5055960;28;20092;-84
2021/05/10 07:25:32;;;;;;;0.88;0.43;;;19.00;62.40;;;;;;5075849;28;20516;-89
2021/05/10 07:27:58;;;;;;;1.40;0.50;;;18.70;61.30;;;;;;5096591;28;20028;-87
2021/05/10 07:30:24;;;;;;;1.40;0.50;;;18.00;63.90;;;;;;5091873;28;20058;-86
2021/05/10 07:32:50;;;;;;;1.35;0.60;;;17.70;66.40;;;;;;5055756;28;20046;-85
2021/05/10 07:35:15;;;;;;;1.23;0.70;;;17.30;67.50;;;;;;5065734;28;20032;-86
2021/05/10 07:37:41;;;;;;;1.35;0.52;;;17.10;68.60;;;;;;5068245;28;20025;-85
2021/05/10 07:40:08;;;;;;;1.58;0.60;;;18.30;66.60;;;;;;5058028;28;20035;-90
2021/05/10 07:42:34;;;;;;;0.75;0.47;;;18.40;64.00;;;;;;5075611;28;20017;-87
2021/05/10 07:45:00;;;;;;;1.17;0.47;;;18.30;62.90;;;;;;5076579;28;20048;-89
2021/05/10 07:47:29;;;;;;;1.15;0.75;;;;;;;;;;5054606;28;20029;-87
2021/05/10 07:49:55;;;;;;;1.40;0.70;;;;;;;;;;5056544;28;20083;-87
2021/05/10 07:52:21;;;;;;;1.27;0.47;;;18.90;62.40;;;;;;5054476;28;20110;-87
2021/05/10 07:54:47;;;;;;;4.18;0.77;;;20.80;56.40;;;;;;5054695;28;20025;-88
2021/05/10 07:57:13;;;;;;;1.10;0.40;;;;;;;;;;5055617;28;20060;-88
2021/05/10 07:59:39;;;;;;;0.70;0.30;;;;;;;;;;5068704;28;20033;-87
2021/05/10 08:02:06;;;;;;;0.93;0.45;;;22.40;54.10;;;;;;5075708;28;20031;-87
2021/05/10 08:04:32;;;;;;;0.93;0.60;;;;;;;;;;5062352;28;20403;-87
2021/05/10 08:06:58;;;;;;;1.17;0.60;;;;;;;;;;5057672;28;20040;-87
2021/05/10 08:09:24;;;;;;;1.02;0.47;;;;;;;;;;5066373;28;20402;-86
2021/05/10 08:11:50;;;;;;;1.63;0.45;;;;;;;;;;5075944;28;20032;-86
2021/05/10 08:14:17;;;;;;;1.80;0.73;;;;;;;;;;5075264;28;20400;-84
2021/05/10 08:16:46;;;;;;;0.90;0.30;;;;;;;;;;5037684;28;20041;-89
2021/05/10 08:19:12;;;;;;;0.95;0.52;;;;;;;;;;5037880;28;20028;-89
2021/05/10 08:21:40;;;;;;;0.90;0.45;;;;;;;;;;5060588;28;20391;-89
2021/05/10 08:24:06;;;;;;;1.20;0.60;;;21.90;50.40;;;;;;5037784;28;20029;-89
2021/05/10 08:26:32;;;;;;;0.85;0.40;;;;;;;;;;5089964;28;20028;-88
2021/05/10 08:28:58;;;;;;;0.70;0.30;;;;;;;;;;5078375;28;20024;-89
2021/05/10 08:31:24;;;;;;;0.88;0.40;;;;;;;;;;5055329;28;20070;-89
2021/05/10 08:33:50;;;;;;;1.02;0.35;;;28.00;37.90;;;;;;5037519;28;20020;-88
2021/05/10 08:36:17;;;;;;;0.95;0.32;;;23.60;42.10;;;;;;5055534;28;20462;-90
2021/05/10 08:38:44;;;;;;;1.20;0.45;;;22.40;43.80;;;;;;5055851;28;20376;-88
2021/05/10 08:41:10;;;;;;;0.77;0.40;;;22.00;45.10;;;;;;5037386;28;20529;-89
2021/05/10 08:43:37;;;;;;;0.85;0.30;;;21.80;45.30;;;;;;5066524;28;20099;-90
2021/05/10 08:46:05;;;;;;;0.65;0.20;;;21.20;45.20;;;;;;5076144;28;20052;-89
2021/05/10 08:48:31;;;;;;;0.90;0.60;;;20.60;45.90;;;;;;5054539;28;20052;-90
2021/05/10 08:50:57;;;;;;;0.40;0.20;;;20.60;45.80;;;;;;5054973;28;20024;-89
2021/05/10 08:53:34;;;;;;;1.10;0.50;;;;;;;;;;5055580;28;20025;-80
2021/05/10 08:56:00;;;;;;;0.70;0.40;;;;;;;;;;5054709;28;20558;-81
2021/05/10 08:58:26;;;;;;;0.55;0.30;;;;;;;;;;5070827;28;20125;-81
2021/05/10 09:00:53;;;;;;;0.63;0.30;;;;;;;;;;5074648;28;20024;-80
2021/05/10 09:03:18;;;;;;;0.60;0.20;;;20.30;45.20;;;;;;5065282;28;20033;-81
2021/05/10 09:05:46;;;;;;;0.77;0.35;;;23.00;39.80;;;;;;5054542;28;20040;-81
2021/05/10 09:08:12;;;;;;;0.88;0.43;;;21.90;42.10;;;;;;5054611;28;20013;-79
2021/05/10 09:10:37;;;;;;;0.80;0.47;;;21.50;44.80;;;;;;5054258;28;20029;-79
2021/05/10 09:13:03;;;;;;;1.00;0.40;;;21.70;44.50;;;;;;5054795;28;20029;-79
2021/05/10 09:15:33;;;;;;;0.75;0.45;;;20.90;44.60;;;;;;5054894;28;20060;-79
2021/05/10 09:18:05;;;;;;;0.93;0.40;;;21.60;45.70;;;;;;5056268;28;20025;-79
2021/05/10 09:20:37;;;;;;;0.40;0.20;;;22.20;44.10;;;;;;5054671;28;20108;-79
2021/05/10 09:23:12;;;;;;;1.00;0.50;;;21.80;44.40;;;;;;5054551;28;20025;-79
2021/05/10 09:25:43;;;;;;;0.73;0.20;;;22.20;44.50;;;;;;5073715;28;20074;-79
2021/05/10 09:28:14;;;;;;;0.70;0.40;;;21.50;44.60;;;;;;5094779;28;20027;-79
2021/05/10 09:30:41;;;;;;;0.88;0.40;;;;;;;;;;5094654;28;20112;-80
2021/05/10 09:33:14;;;;;;;0.68;0.40;;;;;;;;;;5080697;28;20063;-80
2021/05/10 09:35:40;;;;;;;0.40;0.20;;;;;;;;;;5053267;28;20040;-79
2021/05/10 09:38:07;;;;;;;0.55;0.28;;;21.80;45.10;;;;;;5053971;28;20029;-79
2021/05/10 09:40:47;;;;;;;0.75;0.30;;;23.20;40.10;;;;;;5054148;28;20112;-79
2021/05/10 09:43:17;;;;;;;0.50;0.30;;;22.70;41.40;;;;;;5061351;28;20035;-79
2021/05/10 09:45:46;;;;;;;0.77;0.30;;;22.30;41.40;;;;;;5068631;28;20049;-79
2021/05/10 09:48:33;;;;;;;1.10;0.40;;;22.20;42.90;;;;;;5054456;28;20017;-79
2021/05/10 09:51:02;;;;;;;0.60;0.20;;;22.00;43.20;;;;;;5052792;28;20033;-79
2021/05/10 09:53:33;;;;;;;0.55;0.25;;;21.30;43.40;;;;;;5055460;28;20642;-79
2021/05/10 09:56:01;;;;;;;0.55;0.20;;;20.70;45.20;;;;;;5057813;28;20502;-78
2021/05/10 09:58:41;;;;;;;0.32;0.17;;;20.00;45.50;;;;;;5057382;28;20033;-78
2021/05/10 10:01:08;;;;;;;0.20;0.10;;;19.40;47.50;;;;;;5057685;28;20116;-78
2021/05/10 10:03:44;;;;;;;0.35;0.28;;;18.60;48.20;;;;;;5057640;28;20064;-78
2021/05/10 10:06:11;;;;;;;0.70;0.30;;;18.50;48.60;;;;;;5057146;28;20033;-78
2021/05/10 10:08:39;;;;;;;0.38;0.20;;;18.40;49.90;;;;;;5057615;28;20029;-79
2021/05/10 10:11:09;;;;;;;0.55;0.30;;;18.50;50.90;;;;;;5057046;28;20032;-78
2021/05/10 10:13:36;;;;;;;0.80;0.50;;;18.60;51.10;;;;;;5057775;28;20391;-78
2021/05/10 10:16:04;;;;;;;0.82;0.38;;;20.00;49.80;;;;;;5058900;28;20029;-79
2021/05/10 10:18:30;;;;;;;0.80;0.47;;;;;;;;;;5059407;28;20158;-79
2021/05/10 10:20:57;;;;;;;0.40;0.30;;;;;;;;;;5067896;28;20054;-79
2021/05/10 10:23:26;;;;;;;0.30;0.10;;;21.00;46.80;;;;;;5057089;28;20075;-79
2021/05/10 10:25:52;;;;;;;0.40;0.10;;;21.80;44.70;;;;;;5080663;28;20020;-79
2021/05/10 10:28:20;;;;;;;0.28;0.15;;;21.30;45.60;;;;;;5099143;28;20023;-79
2021/05/10 10:30:57;;;;;;;1.13;0.30;;;20.70;45.30;;;;;;5094207;28;20024;-79
2021/05/10 10:34:03;;;;;;;0.45;0.20;;;19.70;51.40;;;;;;5055798;28;20027;-79
2021/05/10 10:36:32;;;;;;;0.10;0.10;;;18.70;56.20;;;;;;5031291;28;20043;-78
2021/05/10 10:39:19;;;;;;;0.20;0.10;;;18.00;57.90;;;;;;5056818;28;20017;-79
2021/05/10 10:42:03;;;;;;;0.70;0.30;;;17.60;59.40;;;;;;5056626;28;20037;-79
2021/05/10 10:44:34;;;;;;;0.38;0.20;;;18.10;61.10;;;;;;5075019;28;20028;-79
2021/05/10 10:47:02;;;;;;;0.70;0.20;;;18.10;62.80;;;;;;5076410;28;20045;-78
2021/05/10 10:49:27;;;;;;;0.60;0.38;;;18.20;63.50;;;;;;5066116;28;20021;-79
2021/05/10 10:51:53;;;;;;;0.50;0.20;;;18.40;65.60;;;;;;5056647;28;20033;-79
2021/05/10 10:54:23;;;;;;;0.40;0.25;;;18.30;60.00;;;;;;5056920;28;20048;-79
2021/05/10 10:57:01;;;;;;;1.10;0.40;;;18.30;61.70;;;;;;5056454;28;20056;-79
2021/05/10 10:59:41;;;;;;;0.57;0.30;;;18.30;61.50;;;;;;5059446;28;20044;-79
2021/05/10 11:02:21;;;;;;;0.70;0.38;;;18.40;60.90;;;;;;5076368;28;20031;-79
2021/05/10 11:05:12;;;;;;;0.85;0.45;;;18.60;63.50;;;;;;5076779;28;20025;-79
2021/05/10 11:07:48;;;;;;;0.88;0.50;;;18.40;58.70;;;;;;5073496;28;20016;-79
2021/05/10 11:10:39;;;;;;;0.93;0.40;;;18.40;59.00;;;;;;5056412;28;20083;-79
2021/05/10 11:13:07;;;;;;;1.02;0.47;;;18.60;58.70;;;;;;5056520;28;20077;-79
2021/05/10 11:15:35;;;;;;;0.77;0.32;;;18.60;57.00;;;;;;5056379;28;20118;-79
2021/05/10 11:18:03;;;;;;;0.45;0.20;;;18.70;56.00;;;;;;5056100;28;20066;-79
2021/05/10 11:20:45;;;;;;;1.25;0.40;;;18.80;55.40;;;;;;5078316;28;20048;-79
2021/05/10 11:23:23;;;;;;;0.50;0.20;;;19.00;56.70;;;;;;5084576;28;20355;-79
2021/05/10 11:25:50;;;;;;;0.85;0.50;;;19.20;55.00;;;;;;5078883;28;20053;-79
2021/05/10 11:28:24;;;;;;;0.55;0.30;;;19.20;53.10;;;;;;5096238;28;20016;-79
2021/05/10 11:31:00;;;;;;;0.43;0.20;;;19.50;53.60;;;;;;5096111;28;20394;-79
2021/05/10 11:33:53;;;;;;;1.23;0.40;;;19.60;51.00;;;;;;5056164;28;20017;-79
2021/05/10 11:36:46;;;;;;;0.90;0.40;;;19.60;50.80;;;;;;5056178;28;20036;-79
2021/05/10 11:39:15;;;;;;;1.02;0.30;;;19.80;52.40;;;;;;5058976;28;20029;-79
2021/05/10 11:41:42;;;;;;;0.70;0.30;;;19.90;49.00;;;;;;5056030;28;20044;-77
2021/05/10 11:44:11;;;;;;;0.43;0.30;;;19.90;47.30;;;;;;5070934;28;20063;-78
2021/05/10 11:46:40;;;;;;;0.57;0.30;;;20.10;46.00;;;;;;5061971;28;20053;-78
2021/05/10 11:49:08;;;;;;;0.88;0.40;;;20.10;45.60;;;;;;5055381;28;20025;-78
2021/05/10 11:51:39;;;;;;;0.85;0.40;;;20.10;47.10;;;;;;5055433;28;20166;-78
2021/05/10 11:54:08;;;;;;;0.63;0.30;;;19.80;45.60;;;;;;5055393;28;20488;-78
2021/05/10 11:56:40;;;;;;;0.53;0.27;;;20.00;47.10;;;;;;5055215;28;20021;-78
2021/05/10 11:59:35;;;;;;;1.17;0.35;;;19.90;46.30;;;;;;5055108;28;20040;-78
2021/05/10 12:02:02;;;;;;;0.40;0.20;;;20.00;46.20;;;;;;5055066;28;20040;-77
2021/05/10 12:04:31;;;;;;;1.02;0.40;;;19.90;45.20;;;;;;5055171;28;20021;-78
2021/05/10 12:06:59;;;;;;;0.43;0.30;;;20.00;46.90;;;;;;5054733;28;20028;-77
2021/05/10 12:09:42;;;;;;;0.35;0.22;;;19.90;43.60;;;;;;5055421;28;20025;-78
2021/05/10 12:12:14;;;;;;;0.43;0.20;;;19.80;43.30;;;;;;5055129;28;20052;-78
2021/05/10 12:14:45;;;;;;;0.80;0.30;;;19.90;42.70;;;;;;5054803;28;20028;-78
2021/05/10 12:17:20;;;;;;;0.30;0.20;;;19.90;42.30;;;;;;5054706;28;20131;-78
2021/05/10 12:19:59;;;;;;;0.73;0.32;;;19.90;43.70;;;;;;5055278;28;20104;-78
2021/05/10 12:22:35;;;;;;;0.53;0.30;;;20.10;45.30;;;;;;5054786;28;20412;-78
2021/05/10 12:25:07;;;;;;;0.40;0.20;;;20.20;44.20;;;;;;5064437;28;20286;-78
2021/05/10 12:27:36;;;;;;;0.43;0.20;;;20.20;43.50;;;;;;5076892;28;20032;-78
2021/05/10 12:30:10;;;;;;;0.50;0.25;;;20.20;44.60;;;;;;5087839;28;20542;-78
2021/05/10 12:32:37;;;;;;;0.52;0.30;;;20.30;43.40;;;;;;5055036;28;20013;-78
2021/05/10 12:35:03;;;;;;;0.60;0.30;;;20.10;44.30;;;;;;5053471;28;20025;-78
2021/05/10 12:37:29;;;;;;;0.28;0.20;;;20.10;44.70;;;;;;5054962;28;20070;-78
2021/05/10 12:40:06;;;;;;;0.50;0.28;;;20.20;43.40;;;;;;5054531;28;20112;-77
2021/05/10 12:42:32;;;;;;;0.35;0.20;;;20.10;42.00;;;;;;5054969;28;20032;-77
2021/05/10 12:45:10;;;;;;;0.25;0.20;;;20.20;43.90;;;;;;5074458;28;20411;-77
2021/05/10 12:47:40;;;;;;;0.43;0.20;;;20.40;44.00;;;;;;5056334;28;20028;-78
2021/05/10 12:50:06;;;;;;;0.75;0.28;;;20.50;42.30;;;;;;5054562;28;20025;-78
2021/05/10 12:52:49;;;;;;;0.70;0.20;;;20.70;43.90;;;;;;5054445;28;20481;-78
2021/05/10 12:55:17;;;;;;;0.73;0.32;;;20.80;44.20;;;;;;5052001;28;20029;-78
2021/05/10 12:57:43;;;;;;;0.60;0.20;;;20.70;43.40;;;;;;5054711;28;20079;-78
2021/05/10 13:00:35;;;;;;;0.88;0.30;;;20.50;43.30;;;;;;5054399;28;20029;-78
2021/05/10 13:03:01;;;;;;;0.70;0.28;;;20.30;43.70;;;;;;5054834;28;20109;-78
2021/05/10 13:05:40;;;;;;;1.15;0.45;;;20.20;44.60;;;;;;5053125;28;20103;-78